sensor_id;sensor_type;location;lat;lon;timestamp;P1;durP1;ratioP1;P2;durP2;ratioP2
66472;SDS011;53291;51.680;8.344;2022-11-15T00:00:51;10.95;;;5.13;;
66472;SDS011;53291;51.680;8.344;2022-11-15T00:03:17;9.38;;;5.95;;
66472;SDS011;53291;51.680;8.344;2022-11-15T00:05:44;10.90;;;6.55;;
66472;SDS011;53291;51.680;8.344;2022-11-15T00:08:10;9.90;;;5.55;;
66472;SDS011;53291;51.680;8.344;2022-11-15T00:10:35;11.25;;;5.45;;
66472;SDS011;53291;51.680;8.344;2022-11-15T00:13:08;10.25;;;5.88;;
66472;SDS011;53291;51.680;8.344;2022-11-15T00:15:35;8.90;;;5.10;;
66472;SDS011;53291;51.680;8.344;2022-11-15T00:18:01;9.05;;;5.13;;
66472;SDS011;53291;51.680;8.344;2022-11-15T00:20:27;8.30;;;5.00;;
66472;SDS011;53291;51.680;8.344;2022-11-15T00:22:52;9.77;;;5.15;;
66472;SDS011;53291;51.680;8.344;2022-11-15T00:25:18;9.80;;;4.88;;
66472;SDS011;53291;51.680;8.344;2022-11-15T00:27:43;9.75;;;5.20;;
66472;SDS011;53291;51.680;8.344;2022-11-15T00:30:10;9.73;;;4.93;;
66472;SDS011;53291;51.680;8.344;2022-11-15T00:32:36;8.73;;;4.65;;
66472;SDS011;53291;51.680;8.344;2022-11-15T00:35:01;10.50;;;5.67;;
66472;SDS011;53291;51.680;8.344;2022-11-15T00:37:26;10.57;;;4.97;;
66472;SDS011;53291;51.680;8.344;2022-11-15T00:39:51;9.00;;;4.83;;
66472;SDS011;53291;51.680;8.344;2022-11-15T00:42:17;11.20;;;5.10;;
66472;SDS011;53291;51.680;8.344;2022-11-15T00:44:42;10.47;;;5.37;;
66472;SDS011;53291;51.680;8.344;2022-11-15T00:47:07;8.93;;;5.00;;
66472;SDS011;53291;51.680;8.344;2022-11-15T00:49:33;8.60;;;4.97;;
66472;SDS011;53291;51.680;8.344;2022-11-15T00:51:58;8.60;;;4.70;;
66472;SDS011;53291;51.680;8.344;2022-11-15T00:54:23;8.83;;;4.77;;
66472;SDS011;53291;51.680;8.344;2022-11-15T00:56:49;9.30;;;5.00;;
66472;SDS011;53291;51.680;8.344;2022-11-15T00:59:14;9.15;;;5.13;;
66472;SDS011;53291;51.680;8.344;2022-11-15T01:01:39;12.07;;;4.93;;
66472;SDS011;53291;51.680;8.344;2022-11-15T01:04:05;10.60;;;5.37;;
66472;SDS011;53291;51.680;8.344;2022-11-15T01:06:31;8.52;;;4.72;;
66472;SDS011;53291;51.680;8.344;2022-11-15T01:08:56;11.33;;;5.30;;
66472;SDS011;53291;51.680;8.344;2022-11-15T01:11:21;9.53;;;4.90;;
66472;SDS011;53291;51.680;8.344;2022-11-15T01:13:46;10.33;;;5.10;;
66472;SDS011;53291;51.680;8.344;2022-11-15T01:16:13;10.77;;;5.55;;
66472;SDS011;53291;51.680;8.344;2022-11-15T01:18:41;8.38;;;5.20;;
66472;SDS011;53291;51.680;8.344;2022-11-15T01:21:07;10.32;;;6.78;;
66472;SDS011;53291;51.680;8.344;2022-11-15T01:23:34;9.02;;;5.30;;
66472;SDS011;53291;51.680;8.344;2022-11-15T01:26:01;9.48;;;5.55;;
66472;SDS011;53291;51.680;8.344;2022-11-15T01:28:33;9.73;;;5.05;;
66472;SDS011;53291;51.680;8.344;2022-11-15T01:31:00;10.75;;;4.97;;
66472;SDS011;53291;51.680;8.344;2022-11-15T01:33:27;9.80;;;5.03;;
66472;SDS011;53291;51.680;8.344;2022-11-15T01:35:53;9.63;;;4.63;;
66472;SDS011;53291;51.680;8.344;2022-11-15T01:38:19;8.65;;;5.28;;
66472;SDS011;53291;51.680;8.344;2022-11-15T01:40:45;9.55;;;5.50;;
66472;SDS011;53291;51.680;8.344;2022-11-15T01:43:30;8.73;;;5.45;;
66472;SDS011;53291;51.680;8.344;2022-11-15T01:46:04;9.02;;;4.70;;
66472;SDS011;53291;51.680;8.344;2022-11-15T01:48:35;9.77;;;5.13;;
66472;SDS011;53291;51.680;8.344;2022-11-15T01:51:02;9.68;;;5.47;;
66472;SDS011;53291;51.680;8.344;2022-11-15T01:53:32;8.63;;;5.20;;
66472;SDS011;53291;51.680;8.344;2022-11-15T01:55:59;10.20;;;5.63;;
66472;SDS011;53291;51.680;8.344;2022-11-15T01:58:29;10.27;;;5.00;;
66472;SDS011;53291;51.680;8.344;2022-11-15T02:00:54;11.30;;;5.95;;
66472;SDS011;53291;51.680;8.344;2022-11-15T02:03:20;10.30;;;6.03;;
66472;SDS011;53291;51.680;8.344;2022-11-15T02:05:50;9.90;;;5.32;;
66472;SDS011;53291;51.680;8.344;2022-11-15T02:08:16;11.20;;;6.20;;
66472;SDS011;53291;51.680;8.344;2022-11-15T02:10:45;11.90;;;7.07;;
66472;SDS011;53291;51.680;8.344;2022-11-15T02:13:12;10.85;;;5.63;;
66472;SDS011;53291;51.680;8.344;2022-11-15T02:15:40;10.10;;;5.20;;
66472;SDS011;53291;51.680;8.344;2022-11-15T02:18:28;8.77;;;5.38;;
66472;SDS011;53291;51.680;8.344;2022-11-15T02:21:02;13.20;;;6.05;;
66472;SDS011;53291;51.680;8.344;2022-11-15T02:28:58;9.95;;;5.25;;
66472;SDS011;53291;51.680;8.344;2022-11-15T02:34:54;10.70;;;6.15;;
66472;SDS011;53291;51.680;8.344;2022-11-15T02:42:40;10.55;;;5.35;;
66472;SDS011;53291;51.680;8.344;2022-11-15T02:45:30;9.82;;;6.03;;
66472;SDS011;53291;51.680;8.344;2022-11-15T02:48:01;8.43;;;5.57;;
66472;SDS011;53291;51.680;8.344;2022-11-15T02:50:29;8.70;;;5.25;;
66472;SDS011;53291;51.680;8.344;2022-11-15T02:52:56;11.15;;;5.82;;
66472;SDS011;53291;51.680;8.344;2022-11-15T02:55:29;10.52;;;5.40;;
66472;SDS011;53291;51.680;8.344;2022-11-15T03:00:59;11.32;;;6.47;;
66472;SDS011;53291;51.680;8.344;2022-11-15T03:09:09;10.07;;;5.68;;
66472;SDS011;53291;51.680;8.344;2022-11-15T03:11:47;9.23;;;5.45;;
66472;SDS011;53291;51.680;8.344;2022-11-15T03:19:40;12.65;;;6.38;;
66472;SDS011;53291;51.680;8.344;2022-11-15T03:22:16;10.55;;;5.32;;
66472;SDS011;53291;51.680;8.344;2022-11-15T03:24:45;11.68;;;5.60;;
66472;SDS011;53291;51.680;8.344;2022-11-15T03:27:15;11.38;;;6.30;;
66472;SDS011;53291;51.680;8.344;2022-11-15T03:29:46;11.90;;;5.47;;
66472;SDS011;53291;51.680;8.344;2022-11-15T03:32:20;11.05;;;6.07;;
66472;SDS011;53291;51.680;8.344;2022-11-15T03:40:42;9.20;;;5.07;;
66472;SDS011;53291;51.680;8.344;2022-11-15T03:43:22;10.25;;;5.63;;
66472;SDS011;53291;51.680;8.344;2022-11-15T03:46:07;9.70;;;5.40;;
66472;SDS011;53291;51.680;8.344;2022-11-15T03:48:43;12.68;;;5.28;;
66472;SDS011;53291;51.680;8.344;2022-11-15T03:51:15;10.85;;;5.95;;
66472;SDS011;53291;51.680;8.344;2022-11-15T03:53:41;14.43;;;5.55;;
66472;SDS011;53291;51.680;8.344;2022-11-15T03:56:07;12.82;;;6.72;;
66472;SDS011;53291;51.680;8.344;2022-11-15T03:58:32;12.32;;;5.60;;
66472;SDS011;53291;51.680;8.344;2022-11-15T04:00:57;11.57;;;5.60;;
66472;SDS011;53291;51.680;8.344;2022-11-15T04:03:24;12.30;;;7.28;;
66472;SDS011;53291;51.680;8.344;2022-11-15T04:05:50;9.70;;;5.78;;
66472;SDS011;53291;51.680;8.344;2022-11-15T04:08:15;11.73;;;5.90;;
66472;SDS011;53291;51.680;8.344;2022-11-15T04:10:40;10.57;;;5.95;;
66472;SDS011;53291;51.680;8.344;2022-11-15T04:13:06;10.80;;;5.53;;
66472;SDS011;53291;51.680;8.344;2022-11-15T04:15:31;11.88;;;5.82;;
66472;SDS011;53291;51.680;8.344;2022-11-15T04:17:57;11.15;;;5.18;;
66472;SDS011;53291;51.680;8.344;2022-11-15T04:20:23;12.00;;;5.85;;
66472;SDS011;53291;51.680;8.344;2022-11-15T04:23:09;10.32;;;5.18;;
66472;SDS011;53291;51.680;8.344;2022-11-15T04:25:55;9.88;;;5.28;;
66472;SDS011;53291;51.680;8.344;2022-11-15T04:28:23;10.52;;;5.03;;
66472;SDS011;53291;51.680;8.344;2022-11-15T04:30:48;10.43;;;5.57;;
66472;SDS011;53291;51.680;8.344;2022-11-15T04:33:14;10.80;;;5.75;;
66472;SDS011;53291;51.680;8.344;2022-11-15T04:35:39;9.55;;;5.03;;
66472;SDS011;53291;51.680;8.344;2022-11-15T04:38:06;10.65;;;5.65;;
66472;SDS011;53291;51.680;8.344;2022-11-15T04:40:33;10.32;;;5.07;;
66472;SDS011;53291;51.680;8.344;2022-11-15T04:42:59;9.43;;;4.43;;
66472;SDS011;53291;51.680;8.344;2022-11-15T04:45:25;10.23;;;5.60;;
66472;SDS011;53291;51.680;8.344;2022-11-15T04:47:50;10.82;;;5.53;;
66472;SDS011;53291;51.680;8.344;2022-11-15T04:50:16;9.10;;;4.88;;
66472;SDS011;53291;51.680;8.344;2022-11-15T04:52:42;9.55;;;5.20;;
66472;SDS011;53291;51.680;8.344;2022-11-15T04:55:14;8.63;;;4.95;;
66472;SDS011;53291;51.680;8.344;2022-11-15T04:57:40;8.88;;;5.47;;
66472;SDS011;53291;51.680;8.344;2022-11-15T05:00:06;8.57;;;4.95;;
66472;SDS011;53291;51.680;8.344;2022-11-15T05:02:33;9.07;;;4.32;;
66472;SDS011;53291;51.680;8.344;2022-11-15T05:05:17;7.13;;;4.00;;
66472;SDS011;53291;51.680;8.344;2022-11-15T05:07:42;7.20;;;3.78;;
66472;SDS011;53291;51.680;8.344;2022-11-15T05:10:08;8.23;;;4.13;;
66472;SDS011;53291;51.680;8.344;2022-11-15T05:12:33;14.45;;;5.75;;
66472;SDS011;53291;51.680;8.344;2022-11-15T05:14:59;8.90;;;5.38;;
66472;SDS011;53291;51.680;8.344;2022-11-15T05:17:24;10.43;;;5.07;;
66472;SDS011;53291;51.680;8.344;2022-11-15T05:19:49;8.83;;;4.97;;
66472;SDS011;53291;51.680;8.344;2022-11-15T05:22:16;8.95;;;4.90;;
66472;SDS011;53291;51.680;8.344;2022-11-15T05:24:42;7.78;;;4.40;;
66472;SDS011;53291;51.680;8.344;2022-11-15T05:27:08;8.18;;;4.68;;
66472;SDS011;53291;51.680;8.344;2022-11-15T05:29:33;12.03;;;5.37;;
66472;SDS011;53291;51.680;8.344;2022-11-15T05:31:58;9.63;;;4.97;;
66472;SDS011;53291;51.680;8.344;2022-11-15T05:34:24;10.82;;;5.90;;
66472;SDS011;53291;51.680;8.344;2022-11-15T05:36:50;9.55;;;4.97;;
66472;SDS011;53291;51.680;8.344;2022-11-15T05:39:16;8.27;;;4.82;;
66472;SDS011;53291;51.680;8.344;2022-11-15T05:41:42;9.60;;;4.90;;
66472;SDS011;53291;51.680;8.344;2022-11-15T05:44:12;8.10;;;4.40;;
66472;SDS011;53291;51.680;8.344;2022-11-15T05:46:40;9.82;;;4.40;;
66472;SDS011;53291;51.680;8.344;2022-11-15T05:49:07;8.48;;;4.43;;
66472;SDS011;53291;51.680;8.344;2022-11-15T05:51:36;7.80;;;4.22;;
66472;SDS011;53291;51.680;8.344;2022-11-15T05:54:02;7.85;;;4.45;;
66472;SDS011;53291;51.680;8.344;2022-11-15T05:56:28;8.15;;;4.70;;
66472;SDS011;53291;51.680;8.344;2022-11-15T05:58:54;7.47;;;4.80;;
66472;SDS011;53291;51.680;8.344;2022-11-15T06:01:21;7.95;;;4.18;;
66472;SDS011;53291;51.680;8.344;2022-11-15T06:03:47;9.55;;;4.70;;
66472;SDS011;53291;51.680;8.344;2022-11-15T06:06:13;8.00;;;3.77;;
66472;SDS011;53291;51.680;8.344;2022-11-15T06:08:38;7.53;;;4.70;;
66472;SDS011;53291;51.680;8.344;2022-11-15T06:11:06;8.10;;;4.30;;
66472;SDS011;53291;51.680;8.344;2022-11-15T06:13:32;7.05;;;3.42;;
66472;SDS011;53291;51.680;8.344;2022-11-15T06:15:58;6.82;;;3.55;;
66472;SDS011;53291;51.680;8.344;2022-11-15T06:18:24;6.00;;;3.25;;
66472;SDS011;53291;51.680;8.344;2022-11-15T06:20:50;5.40;;;3.10;;
66472;SDS011;53291;51.680;8.344;2022-11-15T06:23:15;7.00;;;2.97;;
66472;SDS011;53291;51.680;8.344;2022-11-15T06:25:41;5.50;;;2.92;;
66472;SDS011;53291;51.680;8.344;2022-11-15T06:28:06;5.87;;;3.00;;
66472;SDS011;53291;51.680;8.344;2022-11-15T06:30:31;7.37;;;3.40;;
66472;SDS011;53291;51.680;8.344;2022-11-15T06:33:04;4.85;;;2.50;;
66472;SDS011;53291;51.680;8.344;2022-11-15T06:35:32;6.07;;;2.60;;
66472;SDS011;53291;51.680;8.344;2022-11-15T06:38:03;5.80;;;3.53;;
66472;SDS011;53291;51.680;8.344;2022-11-15T06:40:29;6.40;;;3.15;;
66472;SDS011;53291;51.680;8.344;2022-11-15T06:42:58;6.33;;;3.10;;
66472;SDS011;53291;51.680;8.344;2022-11-15T06:45:24;6.35;;;2.45;;
66472;SDS011;53291;51.680;8.344;2022-11-15T06:47:49;6.95;;;2.70;;
66472;SDS011;53291;51.680;8.344;2022-11-15T06:50:15;5.70;;;3.13;;
66472;SDS011;53291;51.680;8.344;2022-11-15T06:52:40;7.75;;;3.47;;
66472;SDS011;53291;51.680;8.344;2022-11-15T06:55:06;7.50;;;2.70;;
66472;SDS011;53291;51.680;8.344;2022-11-15T06:57:32;5.90;;;2.85;;
66472;SDS011;53291;51.680;8.344;2022-11-15T06:59:57;4.10;;;2.30;;
66472;SDS011;53291;51.680;8.344;2022-11-15T07:02:22;6.35;;;2.65;;
66472;SDS011;53291;51.680;8.344;2022-11-15T07:04:48;8.65;;;2.63;;
66472;SDS011;53291;51.680;8.344;2022-11-15T07:07:13;5.73;;;3.57;;
66472;SDS011;53291;51.680;8.344;2022-11-15T07:09:38;7.10;;;2.87;;
66472;SDS011;53291;51.680;8.344;2022-11-15T07:12:04;8.50;;;2.90;;
66472;SDS011;53291;51.680;8.344;2022-11-15T07:14:29;7.72;;;3.38;;
66472;SDS011;53291;51.680;8.344;2022-11-15T07:16:55;5.97;;;2.60;;
66472;SDS011;53291;51.680;8.344;2022-11-15T07:19:20;5.63;;;3.00;;
66472;SDS011;53291;51.680;8.344;2022-11-15T07:21:45;8.67;;;2.77;;
66472;SDS011;53291;51.680;8.344;2022-11-15T07:24:11;5.53;;;2.88;;
66472;SDS011;53291;51.680;8.344;2022-11-15T07:26:37;6.25;;;2.47;;
66472;SDS011;53291;51.680;8.344;2022-11-15T07:29:02;6.80;;;2.97;;
66472;SDS011;53291;51.680;8.344;2022-11-15T07:31:27;7.20;;;2.50;;
66472;SDS011;53291;51.680;8.344;2022-11-15T07:33:53;5.37;;;2.73;;
66472;SDS011;53291;51.680;8.344;2022-11-15T07:36:18;6.33;;;3.03;;
66472;SDS011;53291;51.680;8.344;2022-11-15T07:38:43;7.30;;;2.35;;
66472;SDS011;53291;51.680;8.344;2022-11-15T07:41:09;4.93;;;1.93;;
66472;SDS011;53291;51.680;8.344;2022-11-15T07:43:34;4.72;;;2.22;;
66472;SDS011;53291;51.680;8.344;2022-11-15T07:46:09;3.80;;;2.00;;
66472;SDS011;53291;51.680;8.344;2022-11-15T07:48:38;5.65;;;2.72;;
66472;SDS011;53291;51.680;8.344;2022-11-15T07:51:05;3.80;;;1.85;;
66472;SDS011;53291;51.680;8.344;2022-11-15T07:53:31;3.47;;;1.75;;
66472;SDS011;53291;51.680;8.344;2022-11-15T07:55:56;3.97;;;2.00;;
66472;SDS011;53291;51.680;8.344;2022-11-15T07:58:22;4.73;;;2.40;;
66472;SDS011;53291;51.680;8.344;2022-11-15T08:00:47;5.43;;;2.90;;
66472;SDS011;53291;51.680;8.344;2022-11-15T08:03:13;4.30;;;2.03;;
66472;SDS011;53291;51.680;8.344;2022-11-15T08:05:40;3.88;;;2.13;;
66472;SDS011;53291;51.680;8.344;2022-11-15T08:08:07;3.00;;;1.55;;
66472;SDS011;53291;51.680;8.344;2022-11-15T08:10:34;3.30;;;1.60;;
66472;SDS011;53291;51.680;8.344;2022-11-15T08:13:06;4.30;;;1.38;;
66472;SDS011;53291;51.680;8.344;2022-11-15T08:15:33;3.85;;;2.33;;
66472;SDS011;53291;51.680;8.344;2022-11-15T08:18:03;4.60;;;1.48;;
66472;SDS011;53291;51.680;8.344;2022-11-15T08:20:31;2.95;;;1.60;;
66472;SDS011;53291;51.680;8.344;2022-11-15T08:22:57;3.53;;;1.48;;
66472;SDS011;53291;51.680;8.344;2022-11-15T08:25:23;4.32;;;1.45;;
66472;SDS011;53291;51.680;8.344;2022-11-15T08:27:52;3.33;;;1.42;;
66472;SDS011;53291;51.680;8.344;2022-11-15T08:30:18;3.13;;;1.35;;
66472;SDS011;53291;51.680;8.344;2022-11-15T08:32:43;3.55;;;1.58;;
66472;SDS011;53291;51.680;8.344;2022-11-15T08:35:09;2.65;;;1.50;;
66472;SDS011;53291;51.680;8.344;2022-11-15T08:37:34;3.58;;;1.73;;
66472;SDS011;53291;51.680;8.344;2022-11-15T08:40:00;3.00;;;1.33;;
66472;SDS011;53291;51.680;8.344;2022-11-15T08:42:26;3.45;;;1.45;;
66472;SDS011;53291;51.680;8.344;2022-11-15T08:44:51;2.80;;;1.08;;
66472;SDS011;53291;51.680;8.344;2022-11-15T08:47:16;3.85;;;1.73;;
66472;SDS011;53291;51.680;8.344;2022-11-15T08:49:42;1.90;;;0.93;;
66472;SDS011;53291;51.680;8.344;2022-11-15T08:52:07;4.13;;;1.10;;
66472;SDS011;53291;51.680;8.344;2022-11-15T08:54:32;3.28;;;1.70;;
66472;SDS011;53291;51.680;8.344;2022-11-15T08:56:58;3.13;;;1.80;;
66472;SDS011;53291;51.680;8.344;2022-11-15T08:59:23;2.53;;;1.58;;
66472;SDS011;53291;51.680;8.344;2022-11-15T09:01:49;2.60;;;1.50;;
66472;SDS011;53291;51.680;8.344;2022-11-15T09:04:14;1.90;;;1.02;;
66472;SDS011;53291;51.680;8.344;2022-11-15T09:06:39;2.17;;;1.10;;
66472;SDS011;53291;51.680;8.344;2022-11-15T09:09:05;2.10;;;0.80;;
66472;SDS011;53291;51.680;8.344;2022-11-15T09:11:30;2.78;;;1.00;;
66472;SDS011;53291;51.680;8.344;2022-11-15T09:13:56;1.90;;;1.13;;
66472;SDS011;53291;51.680;8.344;2022-11-15T09:16:21;2.80;;;1.33;;
66472;SDS011;53291;51.680;8.344;2022-11-15T09:18:46;2.85;;;0.85;;
66472;SDS011;53291;51.680;8.344;2022-11-15T09:21:12;3.28;;;1.83;;
66472;SDS011;53291;51.680;8.344;2022-11-15T09:23:37;2.30;;;0.93;;
66472;SDS011;53291;51.680;8.344;2022-11-15T09:26:04;2.00;;;1.10;;
66472;SDS011;53291;51.680;8.344;2022-11-15T09:28:30;2.47;;;1.23;;
66472;SDS011;53291;51.680;8.344;2022-11-15T09:31:00;2.70;;;0.88;;
66472;SDS011;53291;51.680;8.344;2022-11-15T09:33:26;1.67;;;0.82;;
66472;SDS011;53291;51.680;8.344;2022-11-15T09:35:52;1.58;;;0.90;;
66472;SDS011;53291;51.680;8.344;2022-11-15T09:38:18;3.28;;;1.52;;
66472;SDS011;53291;51.680;8.344;2022-11-15T09:40:43;2.33;;;1.67;;
66472;SDS011;53291;51.680;8.344;2022-11-15T09:51:04;1.53;;;0.70;;
66472;SDS011;53291;51.680;8.344;2022-11-15T09:54:16;2.38;;;0.75;;
66472;SDS011;53291;51.680;8.344;2022-11-15T09:56:27;3.78;;;1.15;;
66472;SDS011;53291;51.680;8.344;2022-11-15T10:01:41;2.20;;;0.82;;
66472;SDS011;53291;51.680;8.344;2022-11-15T10:04:29;2.38;;;0.73;;
66472;SDS011;53291;51.680;8.344;2022-11-15T10:07:05;1.35;;;0.75;;
66472;SDS011;53291;51.680;8.344;2022-11-15T10:12:27;2.00;;;1.45;;
66472;SDS011;53291;51.680;8.344;2022-11-15T10:14:56;1.83;;;1.02;;
66472;SDS011;53291;51.680;8.344;2022-11-15T10:17:48;1.33;;;0.52;;
66472;SDS011;53291;51.680;8.344;2022-11-15T10:20:29;8.35;;;7.88;;
66472;SDS011;53291;51.680;8.344;2022-11-15T10:23:01;4.25;;;1.23;;
66472;SDS011;53291;51.680;8.344;2022-11-15T10:25:31;1.30;;;0.98;;
66472;SDS011;53291;51.680;8.344;2022-11-15T10:30:47;2.00;;;1.27;;
66472;SDS011;53291;51.680;8.344;2022-11-15T10:43:45;1.92;;;0.93;;
66472;SDS011;53291;51.680;8.344;2022-11-15T10:46:26;4.80;;;4.50;;
66472;SDS011;53291;51.680;8.344;2022-11-15T10:48:52;2.70;;;1.20;;
66472;SDS011;53291;51.680;8.344;2022-11-15T10:51:21;2.50;;;0.82;;
66472;SDS011;53291;51.680;8.344;2022-11-15T10:53:53;3.08;;;1.50;;
66472;SDS011;53291;51.680;8.344;2022-11-15T10:56:24;3.08;;;1.05;;
66472;SDS011;53291;51.680;8.344;2022-11-15T10:58:53;2.55;;;0.93;;
66472;SDS011;53291;51.680;8.344;2022-11-15T11:01:29;4.03;;;1.02;;
66472;SDS011;53291;51.680;8.344;2022-11-15T11:04:02;2.90;;;0.85;;
66472;SDS011;53291;51.680;8.344;2022-11-15T11:06:28;2.83;;;1.30;;
66472;SDS011;53291;51.680;8.344;2022-11-15T11:08:57;3.70;;;1.23;;
66472;SDS011;53291;51.680;8.344;2022-11-15T11:11:44;1.75;;;1.05;;
66472;SDS011;53291;51.680;8.344;2022-11-15T11:14:17;2.13;;;1.05;;
66472;SDS011;53291;51.680;8.344;2022-11-15T11:16:50;2.00;;;0.93;;
66472;SDS011;53291;51.680;8.344;2022-11-15T11:19:26;2.17;;;0.93;;
66472;SDS011;53291;51.680;8.344;2022-11-15T11:22:19;1.85;;;0.98;;
66472;SDS011;53291;51.680;8.344;2022-11-15T11:25:01;3.05;;;1.13;;
66472;SDS011;53291;51.680;8.344;2022-11-15T11:30:57;1.83;;;0.75;;
66472;SDS011;53291;51.680;8.344;2022-11-15T11:42:17;1.85;;;0.85;;
66472;SDS011;53291;51.680;8.344;2022-11-15T11:47:40;3.00;;;1.05;;
66472;SDS011;53291;51.680;8.344;2022-11-15T11:50:17;2.67;;;1.30;;
66472;SDS011;53291;51.680;8.344;2022-11-15T11:52:51;2.85;;;1.15;;
66472;SDS011;53291;51.680;8.344;2022-11-15T11:55:26;2.30;;;0.95;;
66472;SDS011;53291;51.680;8.344;2022-11-15T12:00:46;2.35;;;1.42;;
66472;SDS011;53291;51.680;8.344;2022-11-15T12:05:46;1.73;;;0.93;;
66472;SDS011;53291;51.680;8.344;2022-11-15T12:10:44;2.25;;;0.60;;
66472;SDS011;53291;51.680;8.344;2022-11-15T12:13:15;1.50;;;0.68;;
66472;SDS011;53291;51.680;8.344;2022-11-15T12:15:59;3.28;;;1.13;;
66472;SDS011;53291;51.680;8.344;2022-11-15T12:18:32;2.67;;;1.13;;
66472;SDS011;53291;51.680;8.344;2022-11-15T12:21:02;2.08;;;0.95;;
66472;SDS011;53291;51.680;8.344;2022-11-15T12:23:44;2.30;;;1.00;;
66472;SDS011;53291;51.680;8.344;2022-11-15T12:26:20;1.92;;;0.73;;
66472;SDS011;53291;51.680;8.344;2022-11-15T12:28:58;1.92;;;1.35;;
66472;SDS011;53291;51.680;8.344;2022-11-15T12:31:35;2.78;;;1.02;;
66472;SDS011;53291;51.680;8.344;2022-11-15T12:34:01;3.20;;;0.77;;
66472;SDS011;53291;51.680;8.344;2022-11-15T12:36:46;2.88;;;0.93;;
66472;SDS011;53291;51.680;8.344;2022-11-15T12:39:13;2.60;;;1.05;;
66472;SDS011;53291;51.680;8.344;2022-11-15T12:41:42;2.53;;;0.88;;
66472;SDS011;53291;51.680;8.344;2022-11-15T12:44:16;2.65;;;0.95;;
66472;SDS011;53291;51.680;8.344;2022-11-15T13:02:21;2.05;;;0.75;;
66472;SDS011;53291;51.680;8.344;2022-11-15T13:04:52;2.38;;;0.65;;
66472;SDS011;53291;51.680;8.344;2022-11-15T13:10:00;2.78;;;1.02;;
66472;SDS011;53291;51.680;8.344;2022-11-15T13:17:45;3.95;;;0.88;;
66472;SDS011;53291;51.680;8.344;2022-11-15T13:23:00;2.08;;;0.73;;
66472;SDS011;53291;51.680;8.344;2022-11-15T13:33:22;2.33;;;1.05;;
66472;SDS011;53291;51.680;8.344;2022-11-15T13:35:51;3.97;;;3.58;;
66472;SDS011;53291;51.680;8.344;2022-11-15T13:38:29;4.50;;;0.90;;
66472;SDS011;53291;51.680;8.344;2022-11-15T13:40:56;2.03;;;1.17;;
66472;SDS011;53291;51.680;8.344;2022-11-15T13:46:07;1.77;;;0.80;;
66472;SDS011;53291;51.680;8.344;2022-11-15T13:48:38;2.08;;;0.95;;
66472;SDS011;53291;51.680;8.344;2022-11-15T13:51:15;2.80;;;0.70;;
66472;SDS011;53291;51.680;8.344;2022-11-15T13:53:50;1.90;;;0.77;;
66472;SDS011;53291;51.680;8.344;2022-11-15T13:56:20;2.15;;;0.73;;
66472;SDS011;53291;51.680;8.344;2022-11-15T13:58:46;2.20;;;1.42;;
66472;SDS011;53291;51.680;8.344;2022-11-15T14:01:14;3.92;;;0.95;;
66472;SDS011;53291;51.680;8.344;2022-11-15T14:03:48;2.95;;;1.40;;
66472;SDS011;53291;51.680;8.344;2022-11-15T14:06:21;3.22;;;1.25;;
66472;SDS011;53291;51.680;8.344;2022-11-15T14:08:58;2.67;;;0.80;;
66472;SDS011;53291;51.680;8.344;2022-11-15T14:11:36;2.20;;;1.25;;
66472;SDS011;53291;51.680;8.344;2022-11-15T14:16:39;3.03;;;0.82;;
66472;SDS011;53291;51.680;8.344;2022-11-15T14:19:08;1.77;;;0.70;;
66472;SDS011;53291;51.680;8.344;2022-11-15T14:21:36;2.03;;;0.82;;
66472;SDS011;53291;51.680;8.344;2022-11-15T14:24:18;4.53;;;0.95;;
66472;SDS011;53291;51.680;8.344;2022-11-15T14:26:45;1.77;;;0.82;;
66472;SDS011;53291;51.680;8.344;2022-11-15T14:29:29;1.90;;;0.73;;
66472;SDS011;53291;51.680;8.344;2022-11-15T14:34:44;2.58;;;0.75;;
66472;SDS011;53291;51.680;8.344;2022-11-15T14:40:05;2.45;;;1.00;;
66472;SDS011;53291;51.680;8.344;2022-11-15T14:42:31;2.08;;;0.65;;
66472;SDS011;53291;51.680;8.344;2022-11-15T14:44:57;3.25;;;0.82;;
66472;SDS011;53291;51.680;8.344;2022-11-15T14:47:22;2.97;;;0.93;;
66472;SDS011;53291;51.680;8.344;2022-11-15T14:49:48;1.73;;;0.75;;
66472;SDS011;53291;51.680;8.344;2022-11-15T14:54:47;2.78;;;0.82;;
66472;SDS011;53291;51.680;8.344;2022-11-15T14:57:13;2.30;;;1.00;;
66472;SDS011;53291;51.680;8.344;2022-11-15T14:59:38;4.67;;;1.77;;
66472;SDS011;53291;51.680;8.344;2022-11-15T15:02:08;2.17;;;0.80;;
66472;SDS011;53291;51.680;8.344;2022-11-15T15:04:39;2.40;;;0.77;;
66472;SDS011;53291;51.680;8.344;2022-11-15T15:07:04;1.80;;;0.93;;
66472;SDS011;53291;51.680;8.344;2022-11-15T15:09:29;1.80;;;0.77;;
66472;SDS011;53291;51.680;8.344;2022-11-15T15:11:55;2.60;;;0.90;;
66472;SDS011;53291;51.680;8.344;2022-11-15T15:14:20;2.60;;;0.70;;
66472;SDS011;53291;51.680;8.344;2022-11-15T15:16:45;2.97;;;0.80;;
66472;SDS011;53291;51.680;8.344;2022-11-15T15:19:11;3.23;;;1.07;;
66472;SDS011;53291;51.680;8.344;2022-11-15T15:21:36;4.33;;;1.00;;
66472;SDS011;53291;51.680;8.344;2022-11-15T15:24:02;1.92;;;1.20;;
66472;SDS011;53291;51.680;8.344;2022-11-15T15:26:28;3.33;;;0.95;;
66472;SDS011;53291;51.680;8.344;2022-11-15T15:28:54;3.95;;;0.88;;
66472;SDS011;53291;51.680;8.344;2022-11-15T15:31:19;2.55;;;0.75;;
66472;SDS011;53291;51.680;8.344;2022-11-15T15:33:44;2.97;;;1.13;;
66472;SDS011;53291;51.680;8.344;2022-11-15T15:36:10;2.42;;;1.02;;
66472;SDS011;53291;51.680;8.344;2022-11-15T15:38:37;3.30;;;1.95;;
66472;SDS011;53291;51.680;8.344;2022-11-15T15:41:02;3.28;;;1.20;;
66472;SDS011;53291;51.680;8.344;2022-11-15T15:43:28;4.93;;;1.55;;
66472;SDS011;53291;51.680;8.344;2022-11-15T15:45:53;3.00;;;1.27;;
66472;SDS011;53291;51.680;8.344;2022-11-15T15:48:19;4.20;;;1.30;;
66472;SDS011;53291;51.680;8.344;2022-11-15T15:50:44;3.30;;;1.30;;
66472;SDS011;53291;51.680;8.344;2022-11-15T15:53:10;3.70;;;1.42;;
66472;SDS011;53291;51.680;8.344;2022-11-15T15:55:36;3.13;;;1.83;;
66472;SDS011;53291;51.680;8.344;2022-11-15T15:58:03;4.57;;;1.70;;
66472;SDS011;53291;51.680;8.344;2022-11-15T16:00:29;4.10;;;1.25;;
66472;SDS011;53291;51.680;8.344;2022-11-15T16:02:54;4.82;;;1.17;;
66472;SDS011;53291;51.680;8.344;2022-11-15T16:05:20;2.75;;;1.48;;
66472;SDS011;53291;51.680;8.344;2022-11-15T16:07:46;3.70;;;1.45;;
66472;SDS011;53291;51.680;8.344;2022-11-15T16:12:51;3.78;;;1.25;;
66472;SDS011;53291;51.680;8.344;2022-11-15T16:15:18;4.43;;;2.72;;
66472;SDS011;53291;51.680;8.344;2022-11-15T16:17:51;5.93;;;1.85;;
66472;SDS011;53291;51.680;8.344;2022-11-15T16:20:23;4.40;;;1.80;;
66472;SDS011;53291;51.680;8.344;2022-11-15T16:22:54;3.65;;;1.33;;
66472;SDS011;53291;51.680;8.344;2022-11-15T16:25:20;4.32;;;1.73;;
66472;SDS011;53291;51.680;8.344;2022-11-15T16:27:45;3.25;;;1.38;;
66472;SDS011;53291;51.680;8.344;2022-11-15T16:30:15;4.53;;;1.63;;
66472;SDS011;53291;51.680;8.344;2022-11-15T16:32:41;3.08;;;1.55;;
66472;SDS011;53291;51.680;8.344;2022-11-15T16:35:10;4.97;;;2.03;;
66472;SDS011;53291;51.680;8.344;2022-11-15T16:37:37;3.97;;;1.52;;
66472;SDS011;53291;51.680;8.344;2022-11-15T16:40:04;3.53;;;1.67;;
66472;SDS011;53291;51.680;8.344;2022-11-15T16:42:34;3.13;;;1.60;;
66472;SDS011;53291;51.680;8.344;2022-11-15T16:45:00;3.20;;;1.70;;
66472;SDS011;53291;51.680;8.344;2022-11-15T16:47:25;3.45;;;1.55;;
66472;SDS011;53291;51.680;8.344;2022-11-15T16:49:50;2.70;;;2.17;;
66472;SDS011;53291;51.680;8.344;2022-11-15T16:52:16;4.00;;;1.90;;
66472;SDS011;53291;51.680;8.344;2022-11-15T16:54:41;3.20;;;1.60;;
66472;SDS011;53291;51.680;8.344;2022-11-15T16:57:07;3.20;;;1.40;;
66472;SDS011;53291;51.680;8.344;2022-11-15T16:59:34;3.10;;;1.55;;
66472;SDS011;53291;51.680;8.344;2022-11-15T17:01:59;3.63;;;2.00;;
66472;SDS011;53291;51.680;8.344;2022-11-15T17:04:25;2.90;;;1.33;;
66472;SDS011;53291;51.680;8.344;2022-11-15T17:06:56;3.08;;;1.60;;